sensor_id;sensor_type;location;lat;lon;timestamp;pressure;altitude;pressure_sealevel;temperature;humidity
21109;BME280;10712;52.944;9.098;2023-05-29T00:00:20;102217.50;;;19.42;46.34
21109;BME280;10712;52.944;9.098;2023-05-29T00:02:48;102214.81;;;19.42;46.37
21109;BME280;10712;52.944;9.098;2023-05-29T00:05:14;102219.22;;;19.43;46.44
21109;BME280;10712;52.944;9.098;2023-05-29T00:07:41;102213.97;;;19.29;46.88
21109;BME280;10712;52.944;9.098;2023-05-29T00:10:09;102209.28;;;19.31;46.66
21109;BME280;10712;52.944;9.098;2023-05-29T00:12:37;102208.75;;;19.26;46.77
21109;BME280;10712;52.944;9.098;2023-05-29T00:15:03;102209.53;;;19.28;46.74
21109;BME280;10712;52.944;9.098;2023-05-29T00:17:30;102213.97;;;19.29;46.79
21109;BME280;10712;52.944;9.098;2023-05-29T00:20:00;102219.56;;;19.26;46.67
21109;BME280;10712;52.944;9.098;2023-05-29T00:22:27;102219.78;;;19.23;46.85
21109;BME280;10712;52.944;9.098;2023-05-29T00:24:53;102225.94;;;19.25;46.61
21109;BME280;10712;52.944;9.098;2023-05-29T00:27:19;102229.41;;;19.27;46.63
21109;BME280;10712;52.944;9.098;2023-05-29T00:29:46;102226.91;;;19.24;46.68
21109;BME280;10712;52.944;9.098;2023-05-29T00:32:12;102222.91;;;19.17;46.76
21109;BME280;10712;52.944;9.098;2023-05-29T00:34:37;102229.09;;;19.19;46.69
21109;BME280;10712;52.944;9.098;2023-05-29T00:37:04;102224.44;;;19.21;46.68
21109;BME280;10712;52.944;9.098;2023-05-29T00:39:30;102233.00;;;19.15;46.96
21109;BME280;10712;52.944;9.098;2023-05-29T00:41:56;102231.25;;;19.14;46.86
21109;BME280;10712;52.944;9.098;2023-05-29T00:44:23;102231.91;;;19.05;47.10
21109;BME280;10712;52.944;9.098;2023-05-29T00:46:52;102240.78;;;19.07;47.13
21109;BME280;10712;52.944;9.098;2023-05-29T00:49:21;102240.19;;;19.02;47.27
21109;BME280;10712;52.944;9.098;2023-05-29T00:51:50;102248.63;;;19.10;46.97
21109;BME280;10712;52.944;9.098;2023-05-29T00:54:23;102245.72;;;19.00;47.24
21109;BME280;10712;52.944;9.098;2023-05-29T00:56:52;102242.38;;;18.97;47.36
21109;BME280;10712;52.944;9.098;2023-05-29T00:59:20;102244.09;;;18.98;47.29
21109;BME280;10712;52.944;9.098;2023-05-29T01:01:50;102248.53;;;18.99;47.28
21109;BME280;10712;52.944;9.098;2023-05-29T01:04:17;102259.34;;;18.99;47.20
21109;BME280;10712;52.944;9.098;2023-05-29T01:06:43;102247.13;;;18.93;47.21
21109;BME280;10712;52.944;9.098;2023-05-29T01:09:10;102250.69;;;18.94;47.38
21109;BME280;10712;52.944;9.098;2023-05-29T01:12:14;102256.31;;;18.91;47.26
21109;BME280;10712;52.944;9.098;2023-05-29T01:15:04;102258.91;;;18.92;47.12
21109;BME280;10712;52.944;9.098;2023-05-29T01:17:57;102269.25;;;18.85;47.36
21109;BME280;10712;52.944;9.098;2023-05-29T01:20:49;102265.16;;;18.93;47.00
21109;BME280;10712;52.944;9.098;2023-05-29T01:26:21;102265.47;;;18.88;46.72
21109;BME280;10712;52.944;9.098;2023-05-29T01:28:57;102277.72;;;18.94;46.62
21109;BME280;10712;52.944;9.098;2023-05-29T01:31:27;102283.13;;;18.94;46.30
21109;BME280;10712;52.944;9.098;2023-05-29T01:33:58;102280.72;;;18.89;46.34
21109;BME280;10712;52.944;9.098;2023-05-29T01:36:26;102285.91;;;18.92;46.05
21109;BME280;10712;52.944;9.098;2023-05-29T01:38:55;102278.69;;;18.93;46.21
21109;BME280;10712;52.944;9.098;2023-05-29T01:41:23;102281.56;;;18.89;45.56
21109;BME280;10712;52.944;9.098;2023-05-29T01:43:51;102290.63;;;18.88;45.73
21109;BME280;10712;52.944;9.098;2023-05-29T01:46:18;102290.63;;;18.88;45.82
21109;BME280;10712;52.944;9.098;2023-05-29T01:48:46;102290.63;;;18.88;45.54
21109;BME280;10712;52.944;9.098;2023-05-29T01:51:13;102287.22;;;18.86;45.49
21109;BME280;10712;52.944;9.098;2023-05-29T01:53:40;102287.31;;;18.85;45.23
21109;BME280;10712;52.944;9.098;2023-05-29T01:56:06;102286.63;;;18.81;45.21
21109;BME280;10712;52.944;9.098;2023-05-29T01:58:34;102289.34;;;18.81;45.20
21109;BME280;10712;52.944;9.098;2023-05-29T02:01:02;102297.66;;;18.78;45.09
21109;BME280;10712;52.944;9.098;2023-05-29T02:03:30;102295.56;;;18.69;45.19
21109;BME280;10712;52.944;9.098;2023-05-29T02:05:59;102287.38;;;18.71;45.22
21109;BME280;10712;52.944;9.098;2023-05-29T02:08:26;102275.72;;;18.70;45.34
21109;BME280;10712;52.944;9.098;2023-05-29T02:10:52;102284.78;;;18.69;45.45
21109;BME280;10712;52.944;9.098;2023-05-29T02:13:18;102278.06;;;18.62;45.09
21109;BME280;10712;52.944;9.098;2023-05-29T02:15:44;102279.97;;;18.60;45.07
21109;BME280;10712;52.944;9.098;2023-05-29T02:18:13;102280.38;;;18.54;45.12
21109;BME280;10712;52.944;9.098;2023-05-29T02:20:40;102287.50;;;18.55;45.37
21109;BME280;10712;52.944;9.098;2023-05-29T02:23:08;102288.34;;;18.43;45.09
21109;BME280;10712;52.944;9.098;2023-05-29T02:25:34;102278.00;;;18.49;45.07
21109;BME280;10712;52.944;9.098;2023-05-29T02:28:01;102282.53;;;18.49;45.10
21109;BME280;10712;52.944;9.098;2023-05-29T02:30:28;102289.19;;;18.43;45.03
21109;BME280;10712;52.944;9.098;2023-05-29T02:32:54;102293.19;;;18.38;45.25
21109;BME280;10712;52.944;9.098;2023-05-29T02:35:20;102290.66;;;18.35;45.29
21109;BME280;10712;52.944;9.098;2023-05-29T02:37:49;102293.78;;;18.29;45.08
21109;BME280;10712;52.944;9.098;2023-05-29T02:40:16;102311.78;;;18.28;44.99
21109;BME280;10712;52.944;9.098;2023-05-29T02:42:42;102307.47;;;18.26;45.13
21109;BME280;10712;52.944;9.098;2023-05-29T02:45:08;102310.28;;;18.24;45.27
21109;BME280;10712;52.944;9.098;2023-05-29T02:47:35;102308.72;;;18.20;45.21
21109;BME280;10712;52.944;9.098;2023-05-29T02:50:02;102302.69;;;18.17;45.14
21109;BME280;10712;52.944;9.098;2023-05-29T02:52:28;102319.84;;;18.16;45.23
21109;BME280;10712;52.944;9.098;2023-05-29T02:54:56;102311.19;;;18.10;45.27
21109;BME280;10712;52.944;9.098;2023-05-29T02:57:22;102308.88;;;18.04;45.44
21109;BME280;10712;52.944;9.098;2023-05-29T02:59:49;102315.13;;;18.05;45.29
21109;BME280;10712;52.944;9.098;2023-05-29T03:02:14;102308.03;;;18.04;45.23
21109;BME280;10712;52.944;9.098;2023-05-29T03:04:40;102303.69;;;18.01;45.36
21109;BME280;10712;52.944;9.098;2023-05-29T03:07:06;102309.63;;;18.06;45.15
21109;BME280;10712;52.944;9.098;2023-05-29T03:09:32;102312.53;;;18.03;45.33
21109;BME280;10712;52.944;9.098;2023-05-29T03:11:58;102302.16;;;17.97;45.23
21109;BME280;10712;52.944;9.098;2023-05-29T03:14:27;102303.84;;;17.98;45.02
21109;BME280;10712;52.944;9.098;2023-05-29T03:16:54;102296.75;;;17.97;44.93
21109;BME280;10712;52.944;9.098;2023-05-29T03:19:20;102300.19;;;17.99;45.22
21109;BME280;10712;52.944;9.098;2023-05-29T03:21:46;102303.69;;;18.01;45.02
21109;BME280;10712;52.944;9.098;2023-05-29T03:24:12;102301.06;;;18.00;45.04
21109;BME280;10712;52.944;9.098;2023-05-29T03:26:41;102308.59;;;17.95;45.01
21109;BME280;10712;52.944;9.098;2023-05-29T03:29:08;102302.25;;;17.96;44.92
21109;BME280;10712;52.944;9.098;2023-05-29T03:31:35;102304.38;;;17.91;45.04
21109;BME280;10712;52.944;9.098;2023-05-29T03:34:01;102303.22;;;17.95;45.13
21109;BME280;10712;52.944;9.098;2023-05-29T03:36:54;102306.22;;;17.90;45.04
21109;BME280;10712;52.944;9.098;2023-05-29T03:39:19;102308.50;;;17.96;45.11
21109;BME280;10712;52.944;9.098;2023-05-29T03:41:47;102307.91;;;17.91;44.99
21109;BME280;10712;52.944;9.098;2023-05-29T03:44:13;102309.38;;;17.97;45.18
21109;BME280;10712;52.944;9.098;2023-05-29T03:46:39;102305.59;;;17.99;45.01
21109;BME280;10712;52.944;9.098;2023-05-29T03:49:05;102301.16;;;17.98;45.07
21109;BME280;10712;52.944;9.098;2023-05-29T03:51:32;102307.66;;;17.96;45.00
21109;BME280;10712;52.944;9.098;2023-05-29T03:53:58;102298.69;;;17.95;44.94
21109;BME280;10712;52.944;9.098;2023-05-29T03:56:24;102304.06;;;17.95;45.03
21109;BME280;10712;52.944;9.098;2023-05-29T03:58:50;102310.53;;;17.93;45.28
21109;BME280;10712;52.944;9.098;2023-05-29T04:01:16;102311.59;;;17.90;45.30
21109;BME280;10712;52.944;9.098;2023-05-29T04:03:42;102309.88;;;17.89;45.28
21109;BME280;10712;52.944;9.098;2023-05-29T04:06:09;102316.22;;;17.88;45.24
21109;BME280;10712;52.944;9.098;2023-05-29T04:08:36;102320.66;;;17.89;45.30
21109;BME280;10712;52.944;9.098;2023-05-29T04:11:02;102326.69;;;17.93;45.54
21109;BME280;10712;52.944;9.098;2023-05-29T04:13:29;102333.91;;;17.92;45.27
21109;BME280;10712;52.944;9.098;2023-05-29T04:15:55;102341.34;;;17.89;45.39
21109;BME280;10712;52.944;9.098;2023-05-29T04:18:21;102341.25;;;17.90;45.38
21109;BME280;10712;52.944;9.098;2023-05-29T04:20:47;102347.22;;;17.95;45.43
21109;BME280;10712;52.944;9.098;2023-05-29T04:23:14;102345.00;;;17.88;45.39
21109;BME280;10712;52.944;9.098;2023-05-29T04:25:40;102351.75;;;17.95;45.40
21109;BME280;10712;52.944;9.098;2023-05-29T04:28:06;102343.34;;;17.99;45.47
21109;BME280;10712;52.944;9.098;2023-05-29T04:30:32;102351.34;;;18.01;45.43
21109;BME280;10712;52.944;9.098;2023-05-29T04:33:00;102344.91;;;18.03;45.31
21109;BME280;10712;52.944;9.098;2023-05-29T04:35:27;102354.16;;;17.99;45.36
21109;BME280;10712;52.944;9.098;2023-05-29T04:37:58;102355.88;;;18.00;45.40
21109;BME280;10712;52.944;9.098;2023-05-29T04:40:27;102357.81;;;17.98;45.34
21109;BME280;10712;52.944;9.098;2023-05-29T04:42:53;102350.22;;;17.91;45.38
21109;BME280;10712;52.944;9.098;2023-05-29T04:45:22;102348.75;;;17.99;45.37
21109;BME280;10712;52.944;9.098;2023-05-29T04:47:49;102355.69;;;18.03;45.31
21109;BME280;10712;52.944;9.098;2023-05-29T04:50:17;102359.63;;;17.98;45.27
21109;BME280;10712;52.944;9.098;2023-05-29T04:52:43;102370.31;;;17.99;45.36
21109;BME280;10712;52.944;9.098;2023-05-29T04:55:10;102363.00;;;18.01;45.57
21109;BME280;10712;52.944;9.098;2023-05-29T04:57:38;102357.81;;;17.98;45.36
21109;BME280;10712;52.944;9.098;2023-05-29T05:00:07;102361.50;;;17.97;45.17
21109;BME280;10712;52.944;9.098;2023-05-29T05:02:36;102363.41;;;17.95;45.24
21109;BME280;10712;52.944;9.098;2023-05-29T05:05:02;102367.06;;;17.94;45.36
21109;BME280;10712;52.944;9.098;2023-05-29T05:07:28;102378.72;;;17.95;45.31
21109;BME280;10712;52.944;9.098;2023-05-29T05:09:54;102368.41;;;18.01;45.38
21109;BME280;10712;52.944;9.098;2023-05-29T05:12:24;102369.38;;;18.00;45.43
21109;BME280;10712;52.944;9.098;2023-05-29T05:14:50;102368.59;;;17.98;45.41
21109;BME280;10712;52.944;9.098;2023-05-29T05:17:16;102365.03;;;17.98;45.48
21109;BME280;10712;52.944;9.098;2023-05-29T05:19:42;102363.66;;;18.05;45.46
21109;BME280;10712;52.944;9.098;2023-05-29T05:22:08;102367.22;;;18.05;45.41
21109;BME280;10712;52.944;9.098;2023-05-29T05:24:34;102368.31;;;18.03;45.27
21109;BME280;10712;52.944;9.098;2023-05-29T05:27:03;102371.47;;;18.09;45.27
21109;BME280;10712;52.944;9.098;2023-05-29T05:29:30;102368.22;;;18.04;45.28
21109;BME280;10712;52.944;9.098;2023-05-29T05:31:56;102366.66;;;18.00;45.11
21109;BME280;10712;52.944;9.098;2023-05-29T05:34:23;102367.06;;;18.08;45.22
21109;BME280;10712;52.944;9.098;2023-05-29T05:36:49;102372.59;;;18.20;45.14
21109;BME280;10712;52.944;9.098;2023-05-29T05:39:15;102372.91;;;18.29;45.07
21109;BME280;10712;52.944;9.098;2023-05-29T05:41:45;102372.81;;;18.17;44.92
21109;BME280;10712;52.944;9.098;2023-05-29T05:44:14;102379.28;;;18.14;44.91
21109;BME280;10712;52.944;9.098;2023-05-29T05:46:44;102378.31;;;18.15;44.73
21109;BME280;10712;52.944;9.098;2023-05-29T05:49:10;102380.91;;;18.17;44.73
21109;BME280;10712;52.944;9.098;2023-05-29T05:51:37;102374.63;;;18.30;44.74
21109;BME280;10712;52.944;9.098;2023-05-29T05:54:03;102378.47;;;18.26;44.76
21109;BME280;10712;52.944;9.098;2023-05-29T05:56:30;102369.50;;;18.26;44.60
21109;BME280;10712;52.944;9.098;2023-05-29T05:58:56;102377.25;;;18.32;44.67
21109;BME280;10712;52.944;9.098;2023-05-29T06:01:23;102375.19;;;18.35;44.56
21109;BME280;10712;52.944;9.098;2023-05-29T06:03:49;102371.44;;;18.38;44.82
21109;BME280;10712;52.944;9.098;2023-05-29T06:06:16;102376.63;;;18.41;44.72
21109;BME280;10712;52.944;9.098;2023-05-29T06:08:44;102376.66;;;18.27;44.71
21109;BME280;10712;52.944;9.098;2023-05-29T06:11:12;102382.41;;;18.35;44.69
21109;BME280;10712;52.944;9.098;2023-05-29T06:13:40;102385.50;;;18.43;44.39
21109;BME280;10712;52.944;9.098;2023-05-29T06:16:10;102386.06;;;18.34;44.70
21109;BME280;10712;52.944;9.098;2023-05-29T06:18:36;102394.56;;;18.42;44.36
21109;BME280;10712;52.944;9.098;2023-05-29T06:21:02;102393.50;;;18.44;44.34
21109;BME280;10712;52.944;9.098;2023-05-29T06:23:29;102391.91;;;18.55;44.23
21109;BME280;10712;52.944;9.098;2023-05-29T06:25:55;102389.28;;;18.67;44.28
21109;BME280;10712;52.944;9.098;2023-05-29T06:28:21;102382.94;;;18.68;44.37
21109;BME280;10712;52.944;9.098;2023-05-29T06:30:48;102391.06;;;18.81;43.99
21109;BME280;10712;52.944;9.098;2023-05-29T06:33:13;102385.44;;;18.71;44.14
21109;BME280;10712;52.944;9.098;2023-05-29T06:35:41;102382.25;;;18.79;44.41
21109;BME280;10712;52.944;9.098;2023-05-29T06:38:07;102381.72;;;18.86;44.10
21109;BME280;10712;52.944;9.098;2023-05-29T06:40:33;102383.38;;;19.02;43.75
21109;BME280;10712;52.944;9.098;2023-05-29T06:42:59;102386.22;;;19.13;43.64
21109;BME280;10712;52.944;9.098;2023-05-29T06:45:52;102376.06;;;19.16;43.38
21109;BME280;10712;52.944;9.098;2023-05-29T06:48:18;102377.28;;;19.25;43.17
21109;BME280;10712;52.944;9.098;2023-05-29T06:50:47;102385.41;;;19.38;42.93
21109;BME280;10712;52.944;9.098;2023-05-29T06:53:31;102391.47;;;19.41;42.99
21109;BME280;10712;52.944;9.098;2023-05-29T06:55:59;102384.09;;;19.43;43.51
21109;BME280;10712;52.944;9.098;2023-05-29T06:58:26;102386.31;;;19.51;43.40
21109;BME280;10712;52.944;9.098;2023-05-29T07:00:52;102384.59;;;19.62;43.36
21109;BME280;10712;52.944;9.098;2023-05-29T07:03:27;102382.44;;;19.67;42.97
21109;BME280;10712;52.944;9.098;2023-05-29T07:05:54;102386.97;;;19.80;43.06
21109;BME280;10712;52.944;9.098;2023-05-29T07:08:20;102390.63;;;19.79;42.25
21109;BME280;10712;52.944;9.098;2023-05-29T07:10:46;102385.34;;;19.90;42.22
21109;BME280;10712;52.944;9.098;2023-05-29T07:13:16;102388.69;;;19.81;41.44
21109;BME280;10712;52.944;9.098;2023-05-29T07:15:42;102390.00;;;19.88;41.67
21109;BME280;10712;52.944;9.098;2023-05-29T07:18:09;102392.78;;;19.99;41.95
21109;BME280;10712;52.944;9.098;2023-05-29T07:20:36;102388.66;;;20.06;41.65
21109;BME280;10712;52.944;9.098;2023-05-29T07:23:03;102374.78;;;20.23;41.82
21109;BME280;10712;52.944;9.098;2023-05-29T07:25:30;102393.41;;;20.15;41.15
21109;BME280;10712;52.944;9.098;2023-05-29T07:27:57;102387.34;;;20.24;41.17
21109;BME280;10712;52.944;9.098;2023-05-29T07:30:23;102400.88;;;20.24;41.62
21109;BME280;10712;52.944;9.098;2023-05-29T07:32:50;102389.94;;;20.38;41.11
21109;BME280;10712;52.944;9.098;2023-05-29T07:35:16;102397.25;;;20.49;40.57
21109;BME280;10712;52.944;9.098;2023-05-29T07:37:42;102404.63;;;20.60;40.66
21109;BME280;10712;52.944;9.098;2023-05-29T07:40:11;102392.19;;;20.68;40.58
21109;BME280;10712;52.944;9.098;2023-05-29T07:43:09;102398.59;;;20.43;40.22
21109;BME280;10712;52.944;9.098;2023-05-29T07:45:46;102392.34;;;20.67;40.02
21109;BME280;10712;52.944;9.098;2023-05-29T07:48:12;102401.78;;;20.85;40.54
21109;BME280;10712;52.944;9.098;2023-05-29T07:50:38;102404.03;;;20.91;39.98
21109;BME280;10712;52.944;9.098;2023-05-29T07:53:04;102404.50;;;20.85;38.72
21109;BME280;10712;52.944;9.098;2023-05-29T07:55:34;102400.97;;;20.96;38.84
21109;BME280;10712;52.944;9.098;2023-05-29T07:58:01;102409.75;;;20.99;38.52
21109;BME280;10712;52.944;9.098;2023-05-29T08:00:27;102400.91;;;21.08;38.66
21109;BME280;10712;52.944;9.098;2023-05-29T08:02:54;102397.91;;;21.00;38.90
21109;BME280;10712;52.944;9.098;2023-05-29T08:05:43;102391.56;;;21.12;38.94
21109;BME280;10712;52.944;9.098;2023-05-29T08:08:12;102403.38;;;21.11;39.19
21109;BME280;10712;52.944;9.098;2023-05-29T08:10:39;102406.34;;;21.08;39.58
21109;BME280;10712;52.944;9.098;2023-05-29T08:13:05;102411.13;;;21.05;39.09
21109;BME280;10712;52.944;9.098;2023-05-29T08:15:33;102401.44;;;21.13;39.07
21109;BME280;10712;52.944;9.098;2023-05-29T08:17:58;102413.44;;;21.22;39.93
21109;BME280;10712;52.944;9.098;2023-05-29T08:20:25;102413.63;;;21.43;39.75
21109;BME280;10712;52.944;9.098;2023-05-29T08:22:51;102416.78;;;21.37;39.62
21109;BME280;10712;52.944;9.098;2023-05-29T08:25:17;102410.19;;;21.52;39.34
21109;BME280;10712;52.944;9.098;2023-05-29T08:27:43;102421.19;;;21.61;39.19
21109;BME280;10712;52.944;9.098;2023-05-29T08:30:09;102415.66;;;21.74;39.62
21109;BME280;10712;52.944;9.098;2023-05-29T08:32:35;102408.41;;;21.86;39.47
21109;BME280;10712;52.944;9.098;2023-05-29T08:35:01;102417.13;;;21.78;39.37
21109;BME280;10712;52.944;9.098;2023-05-29T08:37:27;102415.63;;;21.52;38.97
21109;BME280;10712;52.944;9.098;2023-05-29T08:39:53;102406.03;;;21.59;38.41
21109;BME280;10712;52.944;9.098;2023-05-29T08:42:22;102404.31;;;21.69;38.37
21109;BME280;10712;52.944;9.098;2023-05-29T08:44:50;102405.81;;;21.84;39.02
21109;BME280;10712;52.944;9.098;2023-05-29T08:47:22;102407.22;;;22.01;38.68
21109;BME280;10712;52.944;9.098;2023-05-29T08:49:54;102404.38;;;22.03;38.43
21109;BME280;10712;52.944;9.098;2023-05-29T08:52:24;102412.50;;;22.14;39.23
21109;BME280;10712;52.944;9.098;2023-05-29T08:54:54;102409.31;;;22.31;39.27
21109;BME280;10712;52.944;9.098;2023-05-29T08:57:21;102412.03;;;22.31;38.77
21109;BME280;10712;52.944;9.098;2023-05-29T08:59:51;102409.28;;;22.20;38.07
21109;BME280;10712;52.944;9.098;2023-05-29T09:02:17;102402.53;;;22.25;38.03
21109;BME280;10712;52.944;9.098;2023-05-29T09:04:44;102403.38;;;22.37;37.84
21109;BME280;10712;52.944;9.098;2023-05-29T09:07:18;102404.47;;;22.34;37.57
21109;BME280;10712;52.944;9.098;2023-05-29T09:09:46;102421.41;;;22.38;38.29
21109;BME280;10712;52.944;9.098;2023-05-29T09:12:12;102421.28;;;22.28;37.95
21109;BME280;10712;52.944;9.098;2023-05-29T09:14:41;102416.91;;;22.48;37.64
21109;BME280;10712;52.944;9.098;2023-05-29T09:17:09;102406.78;;;22.61;37.52
21109;BME280;10712;52.944;9.098;2023-05-29T09:19:36;102408.53;;;22.51;36.53
21109;BME280;10712;52.944;9.098;2023-05-29T09:22:05;102412.97;;;22.74;36.90
21109;BME280;10712;52.944;9.098;2023-05-29T09:24:33;102408.59;;;22.94;37.04
21109;BME280;10712;52.944;9.098;2023-05-29T09:27:00;102403.72;;;23.09;36.97
21109;BME280;10712;52.944;9.098;2023-05-29T09:29:31;102401.13;;;23.28;37.42
21109;BME280;10712;52.944;9.098;2023-05-29T09:31:59;102393.31;;;23.03;35.13
21109;BME280;10712;52.944;9.098;2023-05-29T09:34:25;102390.34;;;23.06;35.43
21109;BME280;10712;52.944;9.098;2023-05-29T09:37:02;102394.59;;;22.99;35.01
21109;BME280;10712;52.944;9.098;2023-05-29T09:39:53;102399.25;;;23.08;35.00
21109;BME280;10712;52.944;9.098;2023-05-29T09:42:20;102398.56;;;22.95;35.03
21109;BME280;10712;52.944;9.098;2023-05-29T09:44:49;102399.25;;;23.08;36.14
21109;BME280;10712;52.944;9.098;2023-05-29T09:47:19;102403.00;;;23.28;36.32
21109;BME280;10712;52.944;9.098;2023-05-29T09:49:46;102405.63;;;23.18;35.94
21109;BME280;10712;52.944;9.098;2023-05-29T09:52:13;102400.84;;;22.78;35.71
21109;BME280;10712;52.944;9.098;2023-05-29T09:54:44;102393.53;;;23.11;35.96
21109;BME280;10712;52.944;9.098;2023-05-29T09:57:16;102394.69;;;23.08;36.05
21109;BME280;10712;52.944;9.098;2023-05-29T09:59:44;102394.16;;;23.14;35.82
21109;BME280;10712;52.944;9.098;2023-05-29T10:02:18;102403.03;;;23.16;36.61
21109;BME280;10712;52.944;9.098;2023-05-29T10:04:44;102405.44;;;23.31;36.31
21109;BME280;10712;52.944;9.098;2023-05-29T10:07:27;102400.81;;;23.42;36.11
21109;BME280;10712;52.944;9.098;2023-05-29T10:10:03;102398.34;;;23.50;36.43
21109;BME280;10712;52.944;9.098;2023-05-29T10:12:31;102396.94;;;23.56;36.82
21109;BME280;10712;52.944;9.098;2023-05-29T10:14:59;102383.66;;;23.63;35.78
21109;BME280;10712;52.944;9.098;2023-05-29T10:17:34;102388.19;;;23.83;36.24
21109;BME280;10712;52.944;9.098;2023-05-29T10:20:05;102389.81;;;23.95;35.84
21109;BME280;10712;52.944;9.098;2023-05-29T10:22:47;102389.28;;;24.01;35.29
21109;BME280;10712;52.944;9.098;2023-05-29T10:25:14;102387.34;;;24.13;34.91
21109;BME280;10712;52.944;9.098;2023-05-29T10:27:43;102386.84;;;24.28;34.21
21109;BME280;10712;52.944;9.098;2023-05-29T10:36:12;102371.75;;;23.94;32.74
21109;BME280;10712;52.944;9.098;2023-05-29T10:38:37;102367.06;;;23.96;33.47
21109;BME280;10712;52.944;9.098;2023-05-29T10:43:54;102349.25;;;24.22;34.37
21109;BME280;10712;52.944;9.098;2023-05-29T10:46:21;102360.19;;;24.42;34.54
21109;BME280;10712;52.944;9.098;2023-05-29T10:48:53;102354.50;;;24.14;33.77
21109;BME280;10712;52.944;9.098;2023-05-29T10:51:28;102362.34;;;24.38;34.78
21109;BME280;10712;52.944;9.098;2023-05-29T10:53:54;102362.25;;;24.59;35.31
21109;BME280;10712;52.944;9.098;2023-05-29T10:56:29;102351.63;;;24.65;34.68
21109;BME280;10712;52.944;9.098;2023-05-29T10:58:58;102352.78;;;24.72;34.57
21109;BME280;10712;52.944;9.098;2023-05-29T11:01:24;102337.88;;;24.86;35.14
21109;BME280;10712;52.944;9.098;2023-05-29T11:06:39;102339.91;;;25.03;34.91
21109;BME280;10712;52.944;9.098;2023-05-29T11:09:06;102345.34;;;25.03;35.41
21109;BME280;10712;52.944;9.098;2023-05-29T11:12:25;102345.66;;;25.10;34.75
21109;BME280;10712;52.944;9.098;2023-05-29T11:15:07;102347.34;;;25.11;34.34
21109;BME280;10712;52.944;9.098;2023-05-29T11:20:12;102349.94;;;25.13;34.64
21109;BME280;10712;52.944;9.098;2023-05-29T11:22:50;102339.03;;;25.13;34.82
21109;BME280;10712;52.944;9.098;2023-05-29T11:25:21;102350.09;;;25.30;34.34
21109;BME280;10712;52.944;9.098;2023-05-29T11:27:46;102347.09;;;25.24;33.40
21109;BME280;10712;52.944;9.098;2023-05-29T11:30:13;102348.78;;;25.25;33.26
21109;BME280;10712;52.944;9.098;2023-05-29T11:32:40;102342.44;;;25.34;33.91
21109;BME280;10712;52.944;9.098;2023-05-29T11:35:09;102344.94;;;24.98;33.73
21109;BME280;10712;52.944;9.098;2023-05-29T11:37:37;102349.97;;;25.03;33.91
21109;BME280;10712;52.944;9.098;2023-05-29T11:40:07;102344.34;;;25.24;33.92
21109;BME280;10712;52.944;9.098;2023-05-29T11:42:45;102339.53;;;25.45;33.88
21109;BME280;10712;52.944;9.098;2023-05-29T11:45:15;102337.25;;;25.60;34.28
21109;BME280;10712;52.944;9.098;2023-05-29T11:47:58;102328.88;;;25.71;33.93
21109;BME280;10712;52.944;9.098;2023-05-29T11:50:30;102331.34;;;25.64;33.84
21109;BME280;10712;52.944;9.098;2023-05-29T11:52:58;102332.34;;;25.63;33.89
21109;BME280;10712;52.944;9.098;2023-05-29T11:55:25;102325.91;;;25.64;33.85
21109;BME280;10712;52.944;9.098;2023-05-29T11:58:03;102337.50;;;25.66;34.05
21109;BME280;10712;52.944;9.098;2023-05-29T12:00:37;102333.78;;;25.67;33.01
21109;BME280;10712;52.944;9.098;2023-05-29T12:03:05;102336.06;;;25.52;32.36
21109;BME280;10712;52.944;9.098;2023-05-29T12:05:44;102345.00;;;25.45;32.48
21109;BME280;10712;52.944;9.098;2023-05-29T12:08:11;102340.72;;;25.33;32.43
21109;BME280;10712;52.944;9.098;2023-05-29T12:10:37;102334.66;;;25.48;32.52
21109;BME280;10712;52.944;9.098;2023-05-29T12:13:03;102320.28;;;25.46;32.16
21109;BME280;10712;52.944;9.098;2023-05-29T12:15:29;102332.91;;;25.57;31.98
21109;BME280;10712;52.944;9.098;2023-05-29T12:17:55;102333.78;;;25.67;31.43
21109;BME280;10712;52.944;9.098;2023-05-29T12:20:25;102326.59;;;25.66;31.76
21109;BME280;10712;52.944;9.098;2023-05-29T12:23:01;102325.69;;;25.75;32.14
21109;BME280;10712;52.944;9.098;2023-05-29T12:25:28;102318.88;;;25.89;32.62
21109;BME280;10712;52.944;9.098;2023-05-29T12:27:56;102324.47;;;25.87;32.54
21109;BME280;10712;52.944;9.098;2023-05-29T12:30:24;102325.50;;;25.86;32.84
21109;BME280;10712;52.944;9.098;2023-05-29T12:32:52;102331.72;;;25.79;31.98
21109;BME280;10712;52.944;9.098;2023-05-29T12:35:29;102334.81;;;25.94;32.14
21109;BME280;10712;52.944;9.098;2023-05-29T12:37:58;102335.03;;;26.10;32.65
21109;BME280;10712;52.944;9.098;2023-05-29T12:40:25;102328.94;;;26.25;32.61
21109;BME280;10712;52.944;9.098;2023-05-29T12:43:09;102327.53;;;26.12;32.87
21109;BME280;10712;52.944;9.098;2023-05-29T12:45:35;102318.41;;;26.21;33.02
21109;BME280;10712;52.944;9.098;2023-05-29T12:48:03;102324.25;;;26.36;33.51
21109;BME280;10712;52.944;9.098;2023-05-29T12:50:34;102323.09;;;26.38;33.21
21109;BME280;10712;52.944;9.098;2023-05-29T12:53:06;102319.88;;;26.43;33.64
21109;BME280;10712;52.944;9.098;2023-05-29T12:55:34;102316.16;;;26.44;33.11
21109;BME280;10712;52.944;9.098;2023-05-29T12:58:05;102322.47;;;26.44;33.33
21109;BME280;10712;52.944;9.098;2023-05-29T13:00:36;102323.56;;;26.51;33.87
21109;BME280;10712;52.944;9.098;2023-05-29T13:03:03;102326.78;;;26.64;34.02
21109;BME280;10712;52.944;9.098;2023-05-29T13:05:29;102322.66;;;26.60;33.02
21109;BME280;10712;52.944;9.098;2023-05-29T13:07:54;102325.47;;;26.69;33.26
21109;BME280;10712;52.944;9.098;2023-05-29T13:10:21;102325.84;;;26.74;33.18
21109;BME280;10712;52.944;9.098;2023-05-29T13:12:49;102323.41;;;26.71;32.93
21109;BME280;10712;52.944;9.098;2023-05-29T13:15:24;102326.41;;;26.59;32.56